Time;durP1;ratioP1;P1;durP2;ratioP2;P2;SDS_P1;SDS_P2;PMS_P1;PMS_P2;Temp;Humidity;BMP_temperature;BMP_pressure;BME280_temperature;BME280_humidity;BME280_pressure;Samples;Min_cycle;Max_cycle;Signal;HPM_P1;HPM_P2
2022/07/19 00:01:59;;;;;;;4.03;2.50;;;;;;;;;;5115498;28;20024;-79
2022/07/19 00:04:25;;;;;;;4.15;2.70;;;;;;;;;;5115456;28;20031;-79
2022/07/19 00:06:51;;;;;;;7.75;2.88;;;;;;;;;;5115415;28;20020;-78
2022/07/19 00:09:17;;;;;;;4.55;2.42;;;;;;;;;;5115381;28;20023;-78
2022/07/19 00:11:43;;;;;;;6.38;2.58;;;;;;;;;;5115378;28;20103;-77
2022/07/19 00:14:09;;;;;;;2.90;2.60;;;;;;;;;;5114983;28;20027;-80
2022/07/19 00:16:36;;;;;;;4.30;2.85;;;;;;;;;;5096999;28;20043;-76
2022/07/19 00:19:02;;;;;;;5.80;2.60;;;;;;;;;;5115184;28;20076;-77
2022/07/19 00:21:28;;;;;;;4.10;2.35;;;;;;;;;;5114942;28;20028;-78
2022/07/19 00:23:54;;;;;;;3.72;2.58;;;;;;;;;;5115154;28;20059;-79
2022/07/19 00:26:20;;;;;;;3.67;2.53;;;;;;;;;;5096648;28;20027;-80
2022/07/19 00:28:46;;;;;;;5.25;2.60;;;;;;;;;;5115325;28;20032;-79
2022/07/19 00:31:12;;;;;;;3.03;2.60;;;;;;;;;;5114800;28;20367;-79
2022/07/19 00:33:38;;;;;;;3.03;2.38;;;;;;;;;;5096901;28;20430;-80
2022/07/19 00:36:05;;;;;;;9.98;3.00;;;;;;;;;;5114833;28;20409;-78
2022/07/19 00:38:31;;;;;;;2.55;1.90;;;;;;;;;;5114522;28;20378;-78
2022/07/19 00:40:57;;;;;;;3.90;2.40;;;;;;;;;;5114797;28;20108;-80
2022/07/19 00:43:23;;;;;;;3.90;2.33;;;;;;;;;;5114380;28;20031;-78
2022/07/19 00:45:49;;;;;;;3.10;2.45;;;;;;;;;;5114796;28;20463;-77
2022/07/19 00:48:15;;;;;;;4.65;2.42;;;;;;;;;;5114609;28;20140;-76
2022/07/19 00:50:41;;;;;;;3.67;2.30;;;;;;;;;;5114517;28;20023;-78
2022/07/19 00:53:07;;;;;;;3.78;2.58;;;;;;;;;;5114505;28;20440;-77
2022/07/19 00:55:35;;;;;;;5.22;2.78;;;;;;;;;;5114181;28;20036;-78
2022/07/19 00:58:02;;;;;;;4.00;2.53;;;;;;;;;;5114484;28;20027;-77
2022/07/19 01:00:30;;;;;;;4.88;2.67;;;;;;;;;;5114187;28;20031;-77
2022/07/19 01:02:56;;;;;;;3.22;2.42;;;;;;;;;;5114276;28;20045;-79
2022/07/19 01:05:22;;;;;;;6.13;2.83;;;;;;;;;;5113945;28;20024;-76
2022/07/19 01:07:48;;;;;;;3.33;2.90;;;;;;;;;;5113791;28;20031;-78
2022/07/19 01:10:15;;;;;;;7.47;3.80;;;;;;;;;;5114280;28;20088;-77
2022/07/19 01:12:41;;;;;;;5.57;3.83;;;;;;;;;;5095792;28;20372;-77
2022/07/19 01:15:14;;;;;;;4.30;3.55;;;;;;;;;;5114059;28;20024;-78
2022/07/19 01:17:40;;;;;;;4.78;3.38;;;;;;;;;;5113812;28;20027;-79
2022/07/19 01:20:07;;;;;;;4.57;3.13;;;;;;;;;;5114007;28;20031;-77
2022/07/19 01:22:33;;;;;;;4.35;2.78;;;;;;;;;;5113421;28;20106;-78
2022/07/19 01:25:00;;;;;;;6.05;3.10;;;;;;;;;;5113816;28;20035;-78
2022/07/19 01:27:26;;;;;;;3.65;3.20;;;;;;;;;;5113525;28;20024;-80
2022/07/19 01:29:52;;;;;;;3.75;2.60;;;;;;;;;;5113866;28;20116;-79
2022/07/19 01:32:18;;;;;;;5.15;2.20;;;;;;;;;;5095498;28;20364;-78
2022/07/19 01:34:44;;;;;;;5.78;2.45;;;;;;;;;;5113810;28;20027;-79
2022/07/19 01:37:10;;;;;;;4.75;2.92;;;;;;;;;;5113866;28;20540;-78
2022/07/19 01:39:36;;;;;;;4.00;2.50;;;;;;;;;;5113493;28;20073;-79
2022/07/19 01:42:02;;;;;;;74.15;63.63;;;;;;;;;;5113628;28;20059;-80
2022/07/19 01:44:28;;;;;;;5.95;4.00;;;;;;;;;;5095163;28;20398;-79
2022/07/19 01:46:54;;;;;;;8.02;7.20;;;;;;;;;;5113396;28;20374;-78
2022/07/19 01:49:21;;;;;;;3.13;2.83;;;;;;;;;;5113517;28;20031;-80
2022/07/19 01:51:47;;;;;;;3.78;2.17;;;;;;;;;;5112986;28;20114;-78
2022/07/19 01:54:13;;;;;;;3.83;2.72;;;;;;;;;;5113273;28;20035;-78
2022/07/19 01:56:42;;;;;;;3.50;2.20;;;;;;;;;;5112989;28;20019;-79
2022/07/19 01:59:08;;;;;;;4.90;2.55;;;;;;;;;;5113583;28;20030;-78
2022/07/19 02:01:34;;;;;;;3.55;2.60;;;;;;;;;;5112949;28;20046;-79
2022/07/19 02:04:01;;;;;;;3.10;2.55;;;;;;;;;;5113184;28;20145;-80
2022/07/19 02:06:27;;;;;;;4.30;2.55;;;;;;;;;;5113016;28;20051;-79
2022/07/19 02:08:53;;;;;;;3.28;2.58;;;;;;;;;;5094861;28;20466;-79
2022/07/19 02:11:37;;;;;;;2.47;1.95;;;;;;;;;;5113109;28;20019;-79
2022/07/19 02:14:08;;;;;;;3.30;2.47;;;;;;;;;;5112922;28;20091;-79
2022/07/19 02:16:35;;;;;;;4.20;2.85;;;;;;;;;;5112851;28;20030;-78
2022/07/19 02:19:02;;;;;;;3.38;2.67;;;;;;;;;;5113139;28;20035;-79
2022/07/19 02:21:28;;;;;;;3.38;2.90;;;;;;;;;;5111876;28;20031;-79
2022/07/19 02:23:54;;;;;;;3.20;2.30;;;;;;;;;;5112820;28;20120;-78
2022/07/19 02:26:20;;;;;;;3.70;2.42;;;;;;;;;;5112542;28;20031;-79
2022/07/19 02:28:46;;;;;;;3.95;2.63;;;;;;;;;;5112442;28;20134;-78
2022/07/19 02:31:12;;;;;;;3.17;2.50;;;;;;;;;;5112498;28;20097;-78
2022/07/19 02:33:38;;;;;;;3.47;2.22;;;;;;;;;;5112472;28;20026;-80
2022/07/19 02:36:05;;;;;;;4.80;2.60;;;;;;;;;;5112872;28;20045;-80
2022/07/19 02:38:31;;;;;;;2.80;2.25;;;;;;;;;;5094062;28;20035;-77
2022/07/19 02:40:57;;;;;;;3.75;2.55;;;;;;;;;;5112823;28;20053;-79
2022/07/19 02:43:23;;;;;;;3.15;2.42;;;;;;;;;;5112423;28;20571;-80
2022/07/19 02:45:49;;;;;;;5.00;2.78;;;;;;;;;;5112704;28;20019;-79
2022/07/19 02:48:15;;;;;;;4.57;2.45;;;;;;;;;;5112512;28;20031;-79
2022/07/19 02:50:42;;;;;;;5.97;2.20;;;;;;;;;;5112118;28;20386;-79
2022/07/19 02:53:08;;;;;;;3.10;2.50;;;;;;;;;;5112576;28;20036;-79
2022/07/19 02:55:35;;;;;;;4.45;2.58;;;;;;;;;;5112301;28;20027;-79
2022/07/19 02:58:01;;;;;;;3.92;2.63;;;;;;;;;;5112530;28;20031;-80
2022/07/19 03:00:27;;;;;;;5.07;3.13;;;;;;;;;;5112681;28;20023;-79
2022/07/19 03:02:53;;;;;;;3.08;2.30;;;;;;;;;;5112391;28;20071;-79
2022/07/19 03:05:20;;;;;;;5.15;2.67;;;;;;;;;;5112625;28;20097;-80
2022/07/19 03:07:46;;;;;;;6.18;2.88;;;;;;;;;;5112260;28;20028;-80
2022/07/19 03:10:12;;;;;;;2.60;2.40;;;;;;;;;;5112380;28;20107;-79
2022/07/19 03:12:38;;;;;;;5.53;3.05;;;;;;;;;;5112026;28;20051;-81
2022/07/19 03:15:04;;;;;;;8.07;3.67;;;;;;;;;;5112545;28;20080;-77
2022/07/19 03:17:31;;;;;;;4.68;3.30;;;;;;;;;;5112223;28;20073;-78
2022/07/19 03:19:57;;;;;;;3.90;3.05;;;;;;;;;;5112298;28;20034;-80
2022/07/19 03:22:24;;;;;;;10.23;3.25;;;;;;;;;;5112310;28;20028;-80
2022/07/19 03:24:50;;;;;;;6.22;3.40;;;;;;;;;;5111900;28;20092;-79
2022/07/19 03:27:16;;;;;;;5.10;2.60;;;;;;;;;;5112285;28;20458;-79
2022/07/19 03:29:42;;;;;;;3.22;2.50;;;;;;;;;;5111862;28;20104;-78
2022/07/19 03:32:08;;;;;;;4.07;2.70;;;;;;;;;;5114471;28;20024;-79
2022/07/19 03:34:34;;;;;;;3.88;2.72;;;;;;;;;;5116370;28;20023;-80
2022/07/19 03:37:00;;;;;;;4.20;2.40;;;;;;;;;;5116004;28;20024;-78
2022/07/19 03:39:26;;;;;;;3.72;2.88;;;;;;;;;;5115945;28;20030;-78
2022/07/19 03:41:52;;;;;;;3.50;2.58;;;;;;;;;;5115663;28;20035;-80
2022/07/19 03:44:18;;;;;;;5.95;3.42;;;;;;;;;;5115910;28;20036;-79
2022/07/19 03:46:44;;;;;;;5.05;3.70;;;;;;;;;;5115680;28;20031;-79
2022/07/19 03:49:11;;;;;;;3.35;3.05;;;;;;;;;;5115584;28;20032;-78
2022/07/19 03:51:37;;;;;;;4.03;3.22;;;;;;;;;;5115656;28;20032;-78
2022/07/19 03:54:03;;;;;;;6.05;3.60;;;;;;;;;;5115392;28;20059;-80
2022/07/19 03:56:29;;;;;;;5.53;3.20;;;;;;;;;;5115744;28;20023;-80
2022/07/19 03:58:55;;;;;;;6.88;3.15;;;;;;;;;;5115380;28;20024;-79
2022/07/19 04:01:21;;;;;;;7.18;3.58;;;;;;;;;;5115703;28;20028;-80
2022/07/19 04:03:47;;;;;;;9.98;7.57;;;;;;;;;;5115500;28;20035;-78
2022/07/19 04:06:13;;;;;;;39.80;33.50;;;;;;;;;;5115413;28;20031;-79
2022/07/19 04:08:39;;;;;;;4.47;3.50;;;;;;;;;;5115562;28;20023;-80
2022/07/19 04:11:05;;;;;;;3.15;2.35;;;;;;;;;;5115409;28;20482;-78
2022/07/19 04:13:35;;;;;;;5.15;2.88;;;;;;;;;;5115294;28;20016;-79
2022/07/19 04:16:02;;;;;;;5.88;3.22;;;;;;;;;;5115242;28;20023;-79
2022/07/19 04:18:28;;;;;;;5.85;3.55;;;;;;;;;;5115193;28;20019;-79
2022/07/19 04:20:56;;;;;;;3.78;3.17;;;;;;;;;;5115053;28;20485;-79
2022/07/19 04:23:22;;;;;;;5.72;2.92;;;;;;;;;;5115088;28;20145;-79
2022/07/19 04:25:48;;;;;;;4.93;3.50;;;;;;;;;;5115159;28;20098;-77
2022/07/19 04:28:14;;;;;;;6.60;3.65;;;;;;;;;;5115121;28;20027;-77
2022/07/19 04:30:40;;;;;;;4.10;3.15;;;;;;;;;;5115005;28;20070;-75
2022/07/19 04:33:06;;;;;;;6.30;3.03;;;;;;;;;;5114604;28;20055;-78
2022/07/19 04:35:33;;;;;;;10.45;4.72;;;;;;;;;;5114858;28;20466;-79
2022/07/19 04:37:59;;;;;;;6.90;3.17;;;;;;;;;;5114575;28;20099;-79
2022/07/19 04:40:25;;;;;;;5.00;3.03;;;;;;;;;;5096647;28;20027;-78
2022/07/19 04:42:51;;;;;;;4.88;3.33;;;;;;;;;;5113680;28;20036;-78
2022/07/19 04:45:17;;;;;;;6.53;3.33;;;;;;;;;;5114407;28;20081;-78
2022/07/19 04:47:43;;;;;;;4.40;2.92;;;;;;;;;;5114642;28;20487;-77
2022/07/19 04:50:09;;;;;;;5.40;3.53;;;;;;;;;;5114634;28;20032;-78
2022/07/19 04:52:35;;;;;;;5.03;3.00;;;;;;;;;;5114687;28;20036;-77
2022/07/19 04:55:01;;;;;;;5.93;3.28;;;;;;;;;;5114179;28;20039;-76
2022/07/19 04:57:28;;;;;;;4.85;2.67;;;;;;;;;;5114364;28;20034;-77
2022/07/19 04:59:54;;;;;;;4.50;3.00;;;;;;;;;;5096097;28;20023;-79
2022/07/19 05:02:22;;;;;;;5.43;2.95;;;;;;;;;;5113875;28;20036;-77
2022/07/19 05:04:48;;;;;;;3.65;2.75;;;;;;;;;;5114250;28;20032;-77
2022/07/19 05:07:14;;;;;;;3.53;2.78;;;;;;;;;;5114243;28;20031;-76
2022/07/19 05:09:41;;;;;;;4.43;3.05;;;;;;;;;;5114217;28;20486;-77
2022/07/19 05:12:07;;;;;;;6.63;4.07;;;;;;;;;;5113880;28;20019;-79
2022/07/19 05:14:34;;;;;;;4.78;3.17;;;;;;;;;;5114064;28;20023;-77
2022/07/19 05:17:00;;;;;;;8.07;6.28;;;;;;;;;;5113966;28;20028;-78
2022/07/19 05:19:26;;;;;;;4.13;3.40;;;;;;;;;;5113592;28;20032;-79
2022/07/19 05:21:52;;;;;;;3.67;2.55;;;;;;;;;;5113753;28;20023;-79
2022/07/19 05:24:18;;;;;;;3.88;3.05;;;;;;;;;;5113603;28;20028;-79
2022/07/19 05:26:44;;;;;;;3.50;2.47;;;;;;;;;;5113702;28;20062;-78
2022/07/19 05:29:12;;;;;;;5.30;2.80;;;;;;;;;;5113704;28;20032;-78
2022/07/19 05:31:39;;;;;;;5.68;2.30;;;;;;;;;;5095427;28;20100;-78
2022/07/19 05:34:05;;;;;;;6.05;3.03;;;;;;;;;;5113247;28;20386;-78
2022/07/19 05:36:31;;;;;;;3.17;2.05;;;;;;;;;;5097007;28;20034;-77
2022/07/19 05:38:57;;;;;;;3.90;2.58;;;;;;;;;;5110045;28;20086;-77
2022/07/19 05:41:23;;;;;;;5.75;2.45;;;;;;;;;;5092044;28;20024;-76
2022/07/19 05:43:50;;;;;;;4.10;2.50;;;;;;;;;;5107397;28;20028;-77
2022/07/19 05:46:16;;;;;;;7.97;3.47;;;;;;;;;;5098122;28;20031;-75
2022/07/19 05:48:43;;;;;;;4.95;2.90;;;;;;;;;;5104132;28;20052;-74
2022/07/19 05:51:09;;;;;;;9.00;3.35;;;;;;;;;;5112495;28;20386;-76
2022/07/19 05:53:36;;;;;;;5.95;3.58;;;;;;;;;;5113527;28;20035;-76
2022/07/19 05:56:02;;;;;;;8.45;3.42;;;;;;;;;;5112894;28;20425;-77
2022/07/19 05:58:28;;;;;;;56.30;13.13;;;;;;;;;;5113641;28;20098;-77
2022/07/19 06:03:39;;;;;;;13.00;5.45;;;;;;;;;;5106213;28;20173;-79
2022/07/19 06:06:05;;;;;;;14.27;5.07;;;;;;;;;;5095957;28;20028;-79
2022/07/19 06:08:31;;;;;;;8.18;4.18;;;;;;;;;;5092484;28;20077;-77
2022/07/19 06:10:57;;;;;;;5.60;3.70;;;;;;;;;;5091982;28;20483;-78
2022/07/19 06:13:24;;;;;;;6.70;3.22;;;;;;;;;;5092466;28;20038;-80
2022/07/19 06:15:50;;;;;;;5.45;3.25;;;;;;;;;;5092543;28;20487;-79
2022/07/19 06:18:16;;;;;;;5.05;3.42;;;;;;;;;;5092210;28;20024;-76
2022/07/19 06:20:42;;;;;;;10.30;6.93;;;;;;;;;;5102513;28;20028;-78
2022/07/19 06:23:08;;;;;;;6.55;4.65;;;;;;;;;;5112023;28;20368;-80
2022/07/19 06:25:34;;;;;;;6.90;6.30;;;;;;;;;;5105623;28;20085;-81
2022/07/19 06:28:01;;;;;;;4.07;2.83;;;;;;;;;;5092092;28;20025;-77
2022/07/19 06:30:27;;;;;;;37.80;18.50;;;;;;;;;;5083749;28;20048;-81
2022/07/19 06:32:53;;;;;;;61.75;26.08;;;;;;;;;;5071887;28;20025;-79
2022/07/19 06:35:20;;;;;;;83.68;35.25;;;;;;;;;;5080196;28;20091;-79
2022/07/19 06:37:46;;;;;;;76.57;31.90;;;;;;;;;;5092332;28;20055;-78
2022/07/19 06:40:13;;;;;;;90.30;37.53;;;;;;;;;;5091585;28;20463;-78
2022/07/19 06:42:39;;;;;;;44.03;18.15;;;;;;;;;;5091981;28;20097;-78
2022/07/19 06:45:05;;;;;;;160.93;59.78;;;;;;;;;;5091180;28;20032;-78
2022/07/19 06:47:35;;;;;;;54.47;22.25;;;;;;;;;;5091923;28;20031;-77
2022/07/19 06:50:01;;;;;;;164.98;62.85;;;;;;;;;;5092243;28;20024;-78
2022/07/19 06:52:27;;;;;;;155.05;59.00;;;;;;;;;;5091867;28;20031;-79
2022/07/19 06:54:53;;;;;;;81.35;33.03;;;;;;;;;;5090969;28;20028;-83
2022/07/19 06:57:20;;;;;;;124.28;51.45;;;;;;;;;;5091789;28;20020;-80
2022/07/19 06:59:46;;;;;;;83.28;42.83;;;;;;;;;;5068660;28;20039;-79
2022/07/19 07:02:12;;;;;;;31.95;16.15;;;;;;;;;;5082378;28;20028;-80
2022/07/19 07:04:38;;;;;;;51.80;29.30;;;;;;;;;;5072143;28;20040;-80
2022/07/19 07:07:05;;;;;;;49.70;31.67;;;;;;;;;;5074016;28;20434;-87
2022/07/19 07:09:44;;;;;;;7.50;3.88;;;;;;;;;;5057694;28;20039;-82
2022/07/19 07:12:10;;;;;;;8.35;5.38;;;;;;;;;;5075386;28;20055;-79
2022/07/19 07:14:36;;;;;;;15.65;5.65;;;;;;;;;;5087902;28;20070;-80
2022/07/19 07:17:02;;;;;;;79.43;33.97;;;;;;;;;;5095892;28;20475;-79
2022/07/19 07:19:38;;;;;;;18.27;8.80;;;;;;;;;;5077552;28;20062;-81
2022/07/19 07:22:04;;;;;;;12.73;6.55;;;;;;;;;;5095431;28;20474;-76
2022/07/19 07:24:30;;;;;;;11.90;5.65;;;;;;;;;;5093442;28;20038;-75
2022/07/19 07:26:56;;;;;;;6.13;4.13;;;;;;;;;;5094448;28;20030;-76
2022/07/19 07:29:22;;;;;;;8.43;4.07;;;;;;;;;;5095746;28;20020;-76
2022/07/19 07:31:48;;;;;;;8.45;3.20;;;;;;;;;;5094743;28;20063;-76
2022/07/19 07:34:14;;;;;;;6.78;3.20;;;;;;;;;;5095796;28;20103;-76
2022/07/19 07:36:41;;;;;;;15.90;14.32;;;;;;;;;;5095401;28;20028;-76
2022/07/19 07:39:07;;;;;;;10.82;9.80;;;;;;;;;;5076976;28;20058;-78
2022/07/19 07:41:33;;;;;;;6.78;3.58;;;;;;;;;;5095005;28;20107;-78
2022/07/19 07:43:59;;;;;;;3.53;2.97;;;;;;;;;;5096696;28;20127;-76
2022/07/19 07:46:25;;;;;;;5.32;4.75;;;;;;;;;;5094720;28;20395;-77
2022/07/19 07:48:51;;;;;;;5.03;3.03;;;;;;;;;;5095301;28;20028;-76
2022/07/19 07:51:17;;;;;;;3.75;3.20;;;;;;;;;;5095226;28;20086;-77
2022/07/19 07:53:43;;;;;;;5.28;3.35;;;;;;;;;;5093828;28;20772;-77
2022/07/19 07:56:09;;;;;;;12.98;9.50;;;;;;;;;;5095968;28;20048;-75
2022/07/19 07:58:35;;;;;;;4.45;2.95;;;;;;;;;;5088536;28;20024;-77
2022/07/19 08:01:02;;;;;;;5.07;2.47;;;;;;;;;;5088959;28;20475;-78
2022/07/19 08:03:28;;;;;;;4.45;3.13;;;;;;;;;;5095171;28;20103;-77
2022/07/19 08:05:54;;;;;;;4.32;2.92;;;;;;;;;;5091711;28;20063;-78
2022/07/19 08:08:20;;;;;;;4.05;2.40;;;;;;;;;;5090433;28;20039;-76
2022/07/19 08:10:46;;;;;;;3.63;2.65;;;;;;;;;;5094828;28;20025;-76
2022/07/19 08:13:12;;;;;;;3.13;2.40;;;;;;;;;;5092512;28;20099;-77
2022/07/19 08:15:38;;;;;;;3.22;2.67;;;;;;;;;;5094400;28;20056;-75
2022/07/19 08:18:05;;;;;;;4.68;2.80;;;;;;;;;;5086647;28;20121;-77
2022/07/19 08:20:32;;;;;;;3.45;3.10;;;;;;;;;;5075951;28;20073;-76
2022/07/19 08:22:58;;;;;;;3.60;3.03;;;;;;;;;;5094338;28;20032;-77
2022/07/19 08:25:24;;;;;;;5.15;3.65;;;;;;;;;;5094830;28;20109;-77
2022/07/19 08:27:50;;;;;;;3.88;3.17;;;;;;;;;;5075938;28;20094;-76
2022/07/19 08:30:17;;;;;;;9.32;4.50;;;;;;;;;;5100863;28;20109;-78
2022/07/19 08:32:43;;;;;;;7.82;3.40;;;;;;;;;;5114692;28;20098;-76
2022/07/19 08:35:09;;;;;;;6.03;3.50;;;;;;;;;;5114124;28;20102;-76
2022/07/19 08:37:35;;;;;;;5.07;2.70;;;;;;;;;;5082734;28;20039;-77
2022/07/19 08:40:02;;;;;;;3.10;2.80;;;;;;;;;;5095152;28;20027;-76
2022/07/19 08:42:28;;;;;;;4.80;2.92;;;;;;;;;;5094065;28;20040;-75
2022/07/19 08:44:55;;;;;;;4.72;2.67;;;;;;;;;;5089957;28;20036;-75
2022/07/19 08:47:21;;;;;;;4.50;2.45;;;;;;;;;;5092236;28;21048;-75
2022/07/19 08:49:48;;;;;;;2.78;2.42;;;;;;;;;;5081680;28;20029;-76
2022/07/19 08:52:14;;;;;;;3.83;2.40;;;;;;;;;;5088849;28;20036;-76
2022/07/19 08:54:41;;;;;;;3.45;2.97;;;;;;;;;;5093793;28;20036;-76
2022/07/19 08:59:51;;;;;;;4.20;2.50;;;;;;;;;;5088623;28;20083;-77
2022/07/19 09:02:17;;;;;;;3.15;2.88;;;;;;;;;;5082566;28;20078;-78
2022/07/19 09:04:44;;;;;;;6.47;3.20;;;;;;;;;;5073010;28;20028;-78
2022/07/19 09:07:11;;;;;;;5.97;3.80;;;;;;;;;;5093744;28;20035;-76
2022/07/19 09:09:37;;;;;;;4.93;2.75;;;;;;;;;;5080158;28;20372;-76
2022/07/19 09:12:04;;;;;;;6.20;2.90;;;;;;;;;;5090795;28;20384;-77
2022/07/19 09:14:30;;;;;;;17.10;5.00;;;;;;;;;;5082477;28;20036;-77
2022/07/19 09:17:01;;;;;;;3.85;2.90;;;;;;;;;;5079966;28;20082;-77
2022/07/19 09:19:28;;;;;;;4.63;2.80;;;;;;;;;;5076168;28;20475;-76
2022/07/19 09:22:13;;;;;;;9.85;3.15;;;;;;;;;;5094422;28;20433;-76
2022/07/19 09:24:40;;;;;;;4.05;2.83;;;;;;;;;;5107462;28;20028;-76
2022/07/19 09:27:08;;;;;;;4.05;2.80;;;;;;;;;;5109598;28;20111;-77
2022/07/19 09:29:36;;;;;;;5.50;2.70;;;;;;;;;;5111774;28;20027;-76
2022/07/19 09:32:03;;;;;;;10.07;8.40;;;;;;;;;;5093387;28;20032;-78
2022/07/19 09:34:31;;;;;;;4.63;3.45;;;;;;;;;;5092048;28;20452;-78
2022/07/19 09:37:10;;;;;;;5.65;3.13;;;;;;;;;;5087837;28;20032;-78
2022/07/19 09:39:39;;;;;;;3.03;2.67;;;;;;;;;;5093433;28;20027;-76
2022/07/19 09:42:05;;;;;;;4.32;2.88;;;;;;;;;;5088374;28;20039;-77
2022/07/19 09:44:31;;;;;;;4.10;2.97;;;;;;;;;;5093229;28;20035;-77
2022/07/19 09:46:57;;;;;;;5.35;4.82;;;;;;;;;;5093177;28;20134;-74
2022/07/19 09:49:23;;;;;;;3.92;3.13;;;;;;;;;;5092448;28;20020;-79
2022/07/19 09:51:51;;;;;;;3.85;2.80;;;;;;;;;;5084314;28;20028;-76
2022/07/19 09:54:18;;;;;;;4.38;2.50;;;;;;;;;;5087821;28;20043;-76
2022/07/19 09:56:45;;;;;;;3.90;2.60;;;;;;;;;;5089024;28;20038;-81
2022/07/19 09:59:11;;;;;;;4.10;3.17;;;;;;;;;;5085897;28;20032;-77
2022/07/19 10:01:38;;;;;;;4.22;2.80;;;;;;;;;;5091787;28;20088;-75
2022/07/19 10:04:07;;;;;;;4.18;3.10;;;;;;;;;;5089528;28;20032;-80
2022/07/19 10:06:34;;;;;;;4.88;3.78;;;;;;;;;;5090338;28;20016;-79
2022/07/19 10:09:00;;;;;;;7.03;4.10;;;;;;;;;;5092559;28;20106;-80
2022/07/19 10:11:27;;;;;;;5.05;3.70;;;;;;;;;;5092490;28;20133;-78
2022/07/19 10:13:54;;;;;;;5.13;3.45;;;;;;;;;;5088117;28;20035;-77
2022/07/19 10:16:25;;;;;;;3.97;2.95;;;;;;;;;;5081068;28;20033;-78
2022/07/19 10:19:02;;;;;;;4.90;3.28;;;;;;;;;;5079887;28;20626;-77
2022/07/19 10:21:28;;;;;;;3.65;3.17;;;;;;;;;;5074436;28;20082;-76
2022/07/19 10:23:54;;;;;;;3.88;3.58;;;;;;;;;;5083994;28;20043;-75
2022/07/19 10:26:39;;;;;;;5.03;2.83;;;;;;;;;;5076637;28;20033;-77
2022/07/19 10:29:15;;;;;;;3.42;3.10;;;;;;;;;;5081337;28;20027;-78
2022/07/19 10:31:41;;;;;;;9.85;3.42;;;;;;;;;;5109922;28;20128;-76
2022/07/19 10:34:11;;;;;;;4.95;3.55;;;;;;;;;;5104028;28;20405;-76
2022/07/19 10:36:44;;;;;;;5.43;3.70;;;;;;;;;;5096487;28;20043;-74
2022/07/19 10:39:35;;;;;;;4.73;3.43;;;;;;;;;;5103502;28;20028;-76
2022/07/19 10:42:05;;;;;;;5.97;3.13;;;;;;;;;;5101200;28;20754;-76
2022/07/19 10:44:31;;;;;;;5.78;3.50;;;;;;;;;;5111403;28;20024;-76
2022/07/19 10:46:57;;;;;;;7.07;3.47;;;;;;;;;;5100378;28;20032;-76
2022/07/19 10:49:45;;;;;;;5.35;3.85;;;;;;;;;;5102505;28;20028;-78
2022/07/19 10:52:29;;;;;;;3.53;3.22;;;;;;;;;;5105993;28;20032;-81
2022/07/19 10:54:55;;;;;;;;;;;;;;;;;;5108965;28;20036;-75
2022/07/19 10:57:36;;;;;;;4.18;3.55;;;;;;;;;;5111452;28;19918;-75
2022/07/19 11:00:02;;;;;;;10.73;8.77;;;;;;;;;;5106206;28;20024;-75
2022/07/19 11:02:28;;;;;;;5.65;3.88;;;;;;;;;;5109916;28;20110;-78
2022/07/19 11:04:56;;;;;;;22.67;11.80;;;;;;;;;;5111727;28;20478;-78
2022/07/19 11:07:23;;;;;;;6.07;4.30;;;;;;;;;;5093117;28;20024;-75
2022/07/19 11:09:56;;;;;;;6.45;3.90;;;;;;;;;;5112331;28;20023;-75
2022/07/19 11:12:27;;;;;;;5.88;3.88;;;;;;;;;;5111494;28;20054;-77
2022/07/19 11:14:54;;;;;;;5.75;5.25;;;;;;;;;;5111900;28;20035;-76
2022/07/19 11:17:20;;;;;;;13.93;4.82;;;;;;;;;;5108778;28;20059;-77
2022/07/19 11:19:59;;;;;;;3.90;3.50;;;;;;;;;;5111575;28;20030;-75
2022/07/19 11:22:25;;;;;;;5.20;4.18;;;;;;;;;;5108746;28;20036;-78
2022/07/19 11:24:52;;;;;;;4.07;3.67;;;;;;;;;;5111219;28;20024;-78
2022/07/19 11:27:18;;;;;;;5.45;4.18;;;;;;;;;;5110318;28;20111;-75
2022/07/19 11:30:03;;;;;;;16.27;14.93;;;;;;;;;;5101633;28;20031;-79
2022/07/19 11:32:30;;;;;;;4.90;3.72;;;;;;;;;;5104809;28;20036;-77
2022/07/19 11:35:03;;;;;;;4.78;3.95;;;;;;;;;;5103368;28;20032;-79
2022/07/19 11:37:31;;;;;;;9.43;4.17;;;;;;;;;;5091356;28;20028;-78
2022/07/19 11:39:57;;;;;;;3.75;3.38;;;;;;;;;;5101543;28;20067;-80
2022/07/19 11:42:46;;;;;;;4.03;3.10;;;;;;;;;;5099239;28;20040;-79
2022/07/19 11:45:14;;;;;;;4.90;2.67;;;;;;;;;;5092713;28;20109;-78
2022/07/19 11:47:44;;;;;;;7.40;6.70;;;;;;;;;;5108332;28;20024;-81
2022/07/19 11:50:11;;;;;;;16.13;14.82;;;;;;;;;;5102208;28;20089;-78
2022/07/19 11:52:47;;;;;;;4.18;3.33;;;;;;;;;;5111352;28;20076;-81
2022/07/19 11:55:14;;;;;;;4.32;3.53;;;;;;;;;;5116061;28;20039;-79
2022/07/19 11:57:40;;;;;;;5.90;4.22;;;;;;;;;;5114009;28;20042;-75
2022/07/19 12:00:07;;;;;;;4.13;2.97;;;;;;;;;;5111537;28;20417;-78
2022/07/19 12:02:52;;;;;;;4.50;3.20;;;;;;;;;;5107793;28;20137;-76
2022/07/19 12:05:18;;;;;;;5.22;3.00;;;;;;;;;;5100500;28;20032;-80
2022/07/19 12:07:51;;;;;;;4.38;3.38;;;;;;;;;;5103591;28;20059;-81
2022/07/19 12:10:33;;;;;;;5.72;3.35;;;;;;;;;;5097305;28;20107;-83
2022/07/19 12:12:59;;;;;;;3.25;2.88;;;;;;;;;;5109342;28;20464;-81
2022/07/19 12:15:26;;;;;;;11.35;10.18;;;;;;;;;;5105004;28;20089;-74
2022/07/19 12:17:56;;;;;;;5.95;4.70;;;;;;;;;;5101290;28;20073;-78
2022/07/19 12:20:22;;;;;;;3.33;3.08;;;;;;;;;;5107967;28;20552;-77
2022/07/19 12:22:51;;;;;;;4.57;3.72;;;;;;;;;;5107430;28;20036;-78
2022/07/19 12:25:35;;;;;;;4.40;4.00;;;;;;;;;;5096609;28;20035;-79
2022/07/19 12:28:02;;;;;;;4.53;3.50;;;;;;;;;;5114442;28;20032;-75
2022/07/19 12:30:29;;;;;;;3.90;3.45;;;;;;;;;;5105125;28;20123;-77
2022/07/19 12:33:05;;;;;;;4.05;3.17;;;;;;;;;;5114774;28;20028;-77
2022/07/19 12:35:41;;;;;;;3.97;3.28;;;;;;;;;;5108686;28;20031;-76
2022/07/19 12:38:09;;;;;;;4.32;3.85;;;;;;;;;;5107604;28;20089;-78
2022/07/19 12:40:36;;;;;;;3.25;2.95;;;;;;;;;;5112519;28;20032;-78
2022/07/19 12:43:03;;;;;;;7.97;5.35;;;;;;;;;;5109845;28;20127;-79
2022/07/19 12:45:33;;;;;;;14.32;7.18;;;;;;;;;;5105147;28;20022;-80
2022/07/19 12:48:00;;;;;;;12.02;6.72;;;;;;;;;;5112784;28;20534;-81
2022/07/19 12:50:28;;;;;;;86.40;35.78;;;;;;;;;;5113945;28;20133;-78
2022/07/19 12:52:56;;;;;;;8.18;4.90;;;;;;;;;;5114298;28;20032;-74
2022/07/19 12:55:23;;;;;;;30.33;12.98;;;;;;;;;;5110520;28;20028;-76
2022/07/19 12:57:50;;;;;;;15.57;13.65;;;;;;;;;;5098862;28;20759;-78
2022/07/19 13:00:18;;;;;;;31.63;16.52;;;;;;;;;;5112957;28;20027;-77
2022/07/19 13:02:45;;;;;;;178.13;70.43;;;;;;;;;;5100942;27;20482;-79
2022/07/19 13:05:11;;;;;;;207.52;81.63;;;;;;;;;;5093204;28;20436;-78
2022/07/19 13:07:37;;;;;;;37.13;16.65;;;;;;;;;;5093695;28;20131;-80
2022/07/19 13:10:04;;;;;;;110.60;45.20;;;;;;;;;;5093635;28;20032;-80
2022/07/19 13:12:30;;;;;;;10.88;6.95;;;;;;;;;;5102055;28;20104;-80
2022/07/19 13:14:56;;;;;;;8.98;5.00;;;;;;;;;;5114099;28;20059;-83
2022/07/19 13:17:22;;;;;;;4.72;4.15;;;;;;;;;;5114242;28;20468;-82
2022/07/19 13:19:48;;;;;;;5.03;3.60;;;;;;;;;;5113256;28;20035;-84
2022/07/19 13:22:14;;;;;;;9.85;8.95;;;;;;;;;;5114306;28;20027;-81
2022/07/19 13:24:41;;;;;;;4.68;4.13;;;;;;;;;;5114042;28;20027;-79
2022/07/19 13:27:10;;;;;;;4.57;4.03;;;;;;;;;;5113680;28;20019;-78
2022/07/19 13:29:36;;;;;;;5.13;4.07;;;;;;;;;;5113060;28;20035;-76
2022/07/19 13:32:03;;;;;;;4.65;3.53;;;;;;;;;;5113639;28;20069;-78
2022/07/19 13:34:30;;;;;;;4.00;3.70;;;;;;;;;;5113336;28;20028;-77
2022/07/19 13:36:56;;;;;;;3.80;3.50;;;;;;;;;;5113779;28;20036;-78
2022/07/19 13:39:22;;;;;;;3.83;3.50;;;;;;;;;;5112292;28;20027;-79
2022/07/19 13:41:49;;;;;;;4.45;3.90;;;;;;;;;;5114352;27;20035;-76
2022/07/19 13:44:15;;;;;;;3.63;3.15;;;;;;;;;;5134985;27;20440;-76
2022/07/19 13:46:41;;;;;;;4.10;3.70;;;;;;;;;;5121749;27;20028;-75
2022/07/19 13:49:07;;;;;;;3.88;3.58;;;;;;;;;;5114314;28;20561;-78
2022/07/19 13:51:34;;;;;;;5.03;3.40;;;;;;;;;;5112654;28;20039;-76
2022/07/19 13:54:00;;;;;;;4.22;3.83;;;;;;;;;;5113557;28;20035;-77
2022/07/19 13:56:26;;;;;;;3.97;3.63;;;;;;;;;;5110955;28;20024;-81
2022/07/19 13:58:52;;;;;;;4.38;3.50;;;;;;;;;;5114898;27;20020;-81
2022/07/19 14:01:19;;;;;;;4.45;3.83;;;;;;;;;;5111654;28;20028;-83
2022/07/19 14:03:47;;;;;;;4.30;3.90;;;;;;;;;;5112507;28;20118;-78
2022/07/19 14:06:13;;;;;;;7.13;4.13;;;;;;;;;;5113296;28;20118;-79
2022/07/19 14:08:39;;;;;;;4.35;3.85;;;;;;;;;;5113502;28;20031;-77
2022/07/19 14:11:05;;;;;;;6.13;3.70;;;;;;;;;;5112541;28;20056;-77
2022/07/19 14:13:33;;;;;;;5.45;4.05;;;;;;;;;;5113285;28;20084;-76
2022/07/19 14:15:59;;;;;;;3.53;3.22;;;;;;;;;;5112179;28;20039;-80
2022/07/19 14:18:26;;;;;;;3.85;3.38;;;;;;;;;;5081161;28;20390;-76
2022/07/19 14:20:52;;;;;;;4.38;3.78;;;;;;;;;;5092573;28;20082;-75
2022/07/19 14:23:18;;;;;;;3.85;3.45;;;;;;;;;;5092505;28;20035;-75
2022/07/19 14:25:44;;;;;;;4.30;3.30;;;;;;;;;;5108649;28;20053;-77
2022/07/19 14:28:10;;;;;;;4.88;4.20;;;;;;;;;;5112851;28;20032;-79
2022/07/19 14:30:36;;;;;;;5.45;4.13;;;;;;;;;;5112053;28;20490;-75
2022/07/19 14:33:03;;;;;;;5.03;3.78;;;;;;;;;;5112605;28;20110;-77
2022/07/19 14:35:29;;;;;;;4.30;3.90;;;;;;;;;;5111681;28;20106;-76
2022/07/19 14:37:58;;;;;;;3.80;3.42;;;;;;;;;;5094882;28;20063;-79
2022/07/19 14:40:24;;;;;;;3.88;3.50;;;;;;;;;;5111670;28;20031;-77
2022/07/19 14:42:50;;;;;;;3.83;3.45;;;;;;;;;;5112112;28;20090;-75
2022/07/19 14:45:16;;;;;;;4.70;4.30;;;;;;;;;;5094210;28;20382;-75
2022/07/19 14:47:42;;;;;;;5.32;3.92;;;;;;;;;;5112155;28;20031;-74